• Join FlightAware (Why Join?)
  • Login
  • US Flag 
12:39PM EDT


 

Airport Tracker/Info


-or-


 

Live Flight TrackerFlight Track Log ✈ ASQ4209 ✈ 14-May-2013 ✈ KIAH - KTYS

Flight Track Log - Related Links

Times and Time Zones

All times are in EDT time to prevent confusion due to time zone crossing. See the ASQ4209 flight status page for this flight to view local times or setup timezone preferences in your user account.

Time Position Orientation Groundspeed Altitude Reporting Facility
EDT Latitude Longitude Course Direction KTS MPH feet Rate Location/Type
09:51PM 29.9639 -95.3433 90° East 144 166 800  Level Houston Center
09:52PM 29.9464 -95.2922 112° Southeast 227 261 2,200 1,860 Climbing Houston Center
09:53PM 29.9256 -95.2250 110° East 252 290 4,200 2,220 Climbing Houston Center
09:54PM 29.9834 -94.7899 90° East  Level FlightAware Approximate
09:54PM 29.9081 -95.1417 104° East 270 311 6,700  Level Houston Center
09:55PM 29.9833 -94.6540 90° East  Level FlightAware Approximate
09:55PM 29.9178 -95.0525 83° East 281 323 9,300  Level Houston Center
09:56PM 29.9834 -94.5181 90° East  Level FlightAware Approximate
09:56PM 29.9275 -94.9633 83° East 279 321 11,300  Level Houston Center
09:57PM 29.9378 -94.8647 83° East 305 351 12,600 1,260 Climbing Houston Center
09:58PM 29.9497 -94.7556 83° East 337 388 13,900 1,320 Climbing Houston Center
09:59PM 29.9611 -94.6408 83° East 358 412 15,300 1,320 Climbing Houston Center
10:00PM 29.9736 -94.5239 83° East 366 421 16,700 1,200 Climbing Houston Center
10:01PM 29.9858 -94.3953 84° East 378 435 17,800 1,080 Climbing Houston Center
10:02PM 30.0000 -94.2711 82° East 389 448 18,900 1,260 Climbing Houston Center
10:03PM 30.0164 -94.1458 81° East 398 458 20,400 1,260 Climbing Houston Center
10:04PM 30.0319 -94.0183 82° East 402 463 21,500 1,080 Climbing Houston Center
10:05PM 30.0475 -93.8881 82° East 410 472 22,600 1,140 Climbing Houston Center
10:06PM 30.0672 -93.7272 82° East 423 487 23,900 1,320 Climbing Houston Center
10:07PM 30.0828 -93.5956 82° East 420 483 25,400 1,320 Climbing Houston Center
10:08PM 30.0981 -93.4647 82° East 418 481 26,700 1,200 Climbing Houston Center
10:09PM 30.1125 -93.3333 83° East 418 481 27,900 1,200 Climbing Houston Center
10:10PM 30.1294 -93.2019 81° East 418 481 29,200 1,200 Climbing Houston Center
10:11PM 30.1583 -93.0736 75° East 426 490 30,400 1,200 Climbing Houston Center
10:12PM 30.2189 -92.9619 58° Northeast 417 480 31,700 1,260 Climbing Houston Center
10:13PM 30.2814 -92.8492 57° Northeast 418 481 33,000 1,380 Climbing Houston Center
10:14PM 30.3547 -92.7128 58° Northeast 418 481 34,500 960 Climbing Houston Center
10:15PM 30.4164 -92.5997 58° Northeast 417 480 35,000 240 Climbing Houston Center
10:16PM 30.4758 -92.4886 58° Northeast 444 511 35,000  Level Houston Center
10:17PM 30.5461 -92.3586 58° Northeast 477 549 35,000  Level Houston Center
10:18PM 30.6306 -92.2006 58° Northeast 481 554 35,000  Level Houston Center
10:19PM 30.6978 -92.0781 57° Northeast 459 528 35,000  Level Houston Center
10:20PM 30.7600 -91.9608 58° Northeast 433 498 35,000  Level Houston Center
10:21PM 30.8214 -91.8467 58° Northeast 423 487 35,000  Level Houston Center
10:22PM 30.8825 -91.7322 58° Northeast 420 483 35,000  Level Houston Center
10:23PM 30.9447 -91.6161 58° Northeast 422 486 35,000  Level Houston Center
10:24PM 31.0092 -91.4931 59° Northeast 437 503 35,000  Level Houston Center
10:25PM 31.0853 -91.3483 58° Northeast 456 525 35,000  Level Houston Center
10:26PM 31.1558 -91.2139 58° Northeast 474 545 35,000  Level Houston Center
10:27PM 31.2275 -91.0783 58° Northeast 484 557 35,000  Level Houston Center
10:28PM 31.2958 -90.9461 59° Northeast 479 551 35,000  Level Houston Center
10:29PM 31.3650 -90.8131 59° Northeast 477 549 35,000  Level Houston Center
10:30PM 31.4347 -90.6772 59° Northeast 483 556 35,000  Level Houston Center
10:31PM 31.5033 -90.5436 59° Northeast 480 552 35,000  Level Houston Center
10:32PM 31.5736 -90.4083 59° Northeast 484 557 35,000  Level Houston Center
10:33PM 31.6453 -90.2728 58° Northeast 488 562 35,000  Level Houston Center
10:34PM 31.7319 -90.1492 50° Northeast 491 565 35,000  Level Houston Center
10:35PM 31.8197 -90.0281 50° Northeast 488 562 35,000  Level Houston Center
10:36PM 31.9050 -89.9094 50° Northeast 485 558 35,000  Level Memphis Center
10:37PM 31.9922 -89.7914 49° Northeast 480 552 35,000  Level Memphis Center
10:38PM 32.0772 -89.6708 50° Northeast 480 552 35,000  Level Memphis Center
10:39PM 32.1642 -89.5500 50° Northeast 480 552 35,000  Level Memphis Center
10:40PM 32.2489 -89.4289 50° Northeast 480 552 35,000  Level Memphis Center
10:41PM 32.3356 -89.3075 50° Northeast 480 552 35,000  Level Memphis Center
10:42PM 32.4222 -89.1883 49° Northeast 480 552 35,000  Level Memphis Center
10:43PM 32.5064 -89.0664 51° Northeast 480 552 35,000  Level Memphis Center
10:44PM 32.6011 -88.9344 50° Northeast 480 552 35,000  Level Memphis Center
10:45PM 32.6872 -88.8119 50° Northeast 480 552 35,000  Level Memphis Center
10:46PM 32.7733 -88.6919 50° Northeast 480 552 35,000  Level Memphis Center
10:47PM 32.8553 -88.5694 51° Northeast 480 552 35,000  Level Memphis Center
10:48PM 32.9411 -88.4486 50° Northeast 480 552 35,000  Level Memphis Center
10:50PM 33.0664 -88.2675 50° Northeast 512 589 35,000  Level Atlanta Center
10:51PM 33.1497 -88.1450 51° Northeast 494 568 35,000  Level Atlanta Center
10:52PM 33.2311 -88.0222 52° Northeast 481 554 35,000  Level Atlanta Center
10:53PM 33.3142 -87.8992 51° Northeast 476 548 35,000  Level Atlanta Center
10:54PM 33.4061 -87.7639 51° Northeast 483 556 35,000  Level Atlanta Center
10:55PM 33.4911 -87.6431 50° Northeast 483 556 35,000  Level Atlanta Center
10:56PM 33.5719 -87.5194 52° Northeast 478 550 35,000  Level Atlanta Center
10:57PM 33.6525 -87.3978 51° Northeast 478 550 35,000  Level Atlanta Center
10:58PM 33.7372 -87.2761 50° Northeast 478 550 35,000  Level Atlanta Center
10:59PM 33.8197 -87.1517 51° Northeast 478 550 35,000  Level Atlanta Center
11:00PM 33.9000 -87.0294 52° Northeast 478 550 35,000  Level Atlanta Center
11:01PM 33.9842 -86.9072 50° Northeast 478 550 35,000  Level Atlanta Center
11:02PM 34.0642 -86.7847 52° Northeast 478 550 35,000  Level Atlanta Center
11:03PM 34.1461 -86.6592 52° Northeast 473 544 35,000 -240 Level Atlanta Center
11:04PM 34.2258 -86.5411 51° Northeast 468 539 34,600 -780 Descending Atlanta Center
11:05PM 34.3056 -86.4178 52° Northeast 468 539 33,500 -840 Descending Atlanta Center
11:06PM 34.3831 -86.3017 51° Northeast 454 522 33,000 -300 Descending Atlanta Center
11:07PM 34.4603 -86.1803 52° Northeast 449 517 33,000  Level Atlanta Center
11:08PM 34.5417 -86.0611 50° Northeast 449 517 33,000 -120 Level Atlanta Center
11:09PM 34.6186 -85.9419 52° Northeast 449 517 32,800 -780 Descending Atlanta Center
11:10PM 34.6956 -85.8197 53° Northeast 449 517 31,500 -1,260 Descending Atlanta Center
11:11PM 34.7636 -85.7178 51° Northeast 444 511 30,300 -1,500 Descending Atlanta Center
11:12PM 34.8406 -85.5928 53° Northeast 450 518 28,500 -1,920 Descending Atlanta Center
11:13PM 34.9214 -85.4700 51° Northeast 455 524 26,500 -1,800 Descending Atlanta Center
11:14PM 35.0019 -85.3422 52° Northeast 460 529 24,900 -1,680 Descending Atlanta Center
11:15PM 35.0806 -85.2214 51° Northeast 460 529 23,200 -2,280 Descending Atlanta Center
11:16PM 35.1544 -85.1031 53° Northeast 448 516 20,400 -2,340 Descending Atlanta Center
11:17PM 35.2264 -84.9872 53° Northeast 438 504 18,600 -1,380 Descending Atlanta Center
11:18PM 35.2981 -84.8761 52° Northeast 427 491 17,700 -960 Descending Atlanta Center
11:19PM 35.3678 -84.7647 52° Northeast 421 484 16,700 -1,080 Descending Atlanta Center
11:20PM 35.4350 -84.6556 53° Northeast 411 473 15,600 -1,080 Descending Atlanta Center
11:21PM 35.5003 -84.5542 52° Northeast 392 451 14,600 -1,140 Descending Atlanta Center
11:22PM 35.5756 -84.4650 44° Northeast 374 430 13,400 -1,200 Descending Atlanta Center
11:23PM 35.6447 -84.3836 44° Northeast 355 409 12,200 -1,800 Descending Atlanta Center
11:24PM 35.7056 -84.3047 46° Northeast 304 350 9,800 -2,640 Descending Atlanta Center
11:25PM 35.7556 -84.2306 50° Northeast 280 322 7,000 -2,400 Descending Atlanta Center
11:26PM 35.8017 -84.1564 53° Northeast 275 316 5,000 -1,500 Descending Atlanta Center
11:27PM 35.8517 -84.0900 47° Northeast 275 316 4,000 -600 Descending Atlanta Center
11:28PM 35.8956 -84.0233 51° Northeast 260 299 3,800 -600 Descending Atlanta Center
11:29PM 35.9228 -83.9489 66° East 243 280 2,800 -1,020 Descending Atlanta Center